2BLTY EGNH-EGGW
Flight info
| Callsign | 2BLTY |
|---|---|
| Flight time | N/A |
| Altitude | 19000 |
| Route | ESTRY DCT WAL L10 HON L15 FINMA |
| Aircraft | GA7C/M-SBDE2E3FGHIJ4J5M1RWXY/LB1D1 |
Departure
| Time | 2026-05-01 15:22 |
|---|---|
| Airport | Blackpool Airport (EGNH) |
Arrival
| Time | N/A |
|---|---|
| Airport | London Luton Airport (EGGW) |
| Time | Latitude | Longitude | Altitude | Speed | Heading |
|---|---|---|---|---|---|
| 2026-05-01 15:20 | 53.77094 | -3.01577 | 45 ft | 0 kts | 275° |
| 2026-05-01 15:21 | 53.77117 | -3.02063 | 45 ft | 81 kts | 274° |
| 2026-05-01 15:21 | 53.77184 | -3.03413 | 49 ft | 148 kts | 276° |
| 2026-05-01 15:21 | 53.77303 | -3.05441 | 269 ft | 202 kts | 277° |
| 2026-05-01 15:21 | 53.77457 | -3.08052 | 612 ft | 232 kts | 277° |
| 2026-05-01 15:22 | 53.77740 | -3.13599 | 1903 ft | 244 kts | 265° |
| 2026-05-01 15:22 | 53.77122 | -3.16286 | 2524 ft | 245 kts | 229° |
| 2026-05-01 15:22 | 53.75759 | -3.17893 | 3445 ft | 242 kts | 202° |
| 2026-05-01 15:23 | 53.74164 | -3.18830 | 4182 ft | 243 kts | 200° |
| 2026-05-01 15:23 | 53.72619 | -3.20046 | 4953 ft | 246 kts | 208° |
| 2026-05-01 15:23 | 53.71150 | -3.21543 | 5721 ft | 247 kts | 210° |
| 2026-05-01 15:23 | 53.69687 | -3.23017 | 6468 ft | 249 kts | 209° |
| 2026-05-01 15:24 | 53.68146 | -3.24368 | 7122 ft | 250 kts | 200° |
| 2026-05-01 15:24 | 53.66455 | -3.25078 | 7805 ft | 251 kts | 188° |
| 2026-05-01 15:24 | 53.64705 | -3.25146 | 8501 ft | 253 kts | 175° |
| 2026-05-01 15:24 | 53.62967 | -3.24546 | 9212 ft | 257 kts | 165° |
| 2026-05-01 15:25 | 53.61241 | -3.23713 | 9940 ft | 259 kts | 167° |
| 2026-05-01 15:25 | 53.59491 | -3.22923 | 10564 ft | 261 kts | 166° |
| 2026-05-01 15:25 | 53.57727 | -3.22093 | 11141 ft | 265 kts | 166° |
| 2026-05-01 15:25 | 53.55919 | -3.21241 | 11580 ft | 274 kts | 166° |
| 2026-05-01 15:26 | 53.54050 | -3.20365 | 12017 ft | 283 kts | 166° |
| 2026-05-01 15:26 | 53.52128 | -3.19470 | 12463 ft | 291 kts | 166° |
| 2026-05-01 15:26 | 53.50174 | -3.18556 | 12914 ft | 299 kts | 166° |
| 2026-05-01 15:26 | 53.48159 | -3.17617 | 13416 ft | 305 kts | 166° |
| 2026-05-01 15:27 | 53.46097 | -3.16656 | 13974 ft | 308 kts | 166° |
| 2026-05-01 15:27 | 53.44016 | -3.15687 | 14502 ft | 311 kts | 166° |
| 2026-05-01 15:27 | 53.41917 | -3.14713 | 15043 ft | 313 kts | 166° |
| 2026-05-01 15:28 | 53.37947 | -3.11540 | 16083 ft | 323 kts | 146° |
| 2026-05-01 15:28 | 53.36230 | -3.09081 | 16590 ft | 327 kts | 141° |
| 2026-05-01 15:28 | 53.34510 | -3.06569 | 17073 ft | 329 kts | 142° |
| 2026-05-01 15:29 | 53.31048 | -3.01530 | 18089 ft | 335 kts | 142° |
| 2026-05-01 15:29 | 53.29290 | -2.98953 | 18573 ft | 337 kts | 142° |
| 2026-05-01 15:29 | 53.25706 | -2.93738 | 19156 ft | 353 kts | 142° |
| 2026-05-01 15:30 | 53.21839 | -2.88122 | 19171 ft | 384 kts | 142° |
| 2026-05-01 15:31 | 53.13207 | -2.75619 | 19154 ft | 419 kts | 142° |
| 2026-05-01 15:31 | 53.08972 | -2.69510 | 19139 ft | 387 kts | 142° |
| 2026-05-01 15:32 | 53.05051 | -2.63874 | 19135 ft | 359 kts | 142° |
| 2026-05-01 15:32 | 53.01392 | -2.58630 | 19142 ft | 344 kts | 143° |
| 2026-05-01 15:33 | 52.95965 | -2.50869 | 19150 ft | 343 kts | 143° |
| 2026-05-01 15:34 | 52.90480 | -2.43057 | 19162 ft | 350 kts | 143° |